Terminal Aerodrome Forecast
Issued by NWS Rapid City, SD

Home | Current Version | Previous Version | Text Only | Print | Product List | Glossary On
Versions: 1 2 3 4 5 6 7 8 9 10 11 12 13
000
FTUS43 KUNR 211100
TAFRAP
TAF
KRAP 211120Z 2112/2212 15006KT P6SM SKC
     FM211800 18015G25KT P6SM SCT200
     FM220700 32018G28KT P6SM BKN200=

USA.gov is the U.S. government's official web portal to all federal, state and local government web resources and services.